Peniel Crossroads, South Carolina
Current Conditions -  °F | °C
As of 8:53 AM on Monday 22 Dec 2014 (Local Time) from KFLO Reporting Station
Overcast Overcast  
Wind Chill: 37°   Ceiling: 600
Heat Index: 42°   Visibility: 10mi
Dew Point: 40°   Wind: 9mph
Humidity: 92%   Direction: 30°NNE
Pressure: 30.11"   Gusts: NA
Location:  34.07°N, 79.933°W
Report Text: KFLO 221353Z 03008KT 10SM OVC006 06/04 A3011 RMK AO2 SLP196 T00560044
Loading
Personal Weather Stations






























Interactive Weather Map New forecast layout! Learn more

10-Day Weather Forecast

Advertisements
Track Severe Weather on mobile